Time;durP1;ratioP1;P1;durP2;ratioP2;P2;SDS_P1;SDS_P2;PMS_P1;PMS_P2;Temp;Humidity;BMP_temperature;BMP_pressure;BME280_temperature;BME280_humidity;BME280_pressure;Samples;Min_cycle;Max_cycle;Signal;HPM_P1;HPM_P2
2021/05/20 00:01:54;;;;;;;1.77;1.67;;;;;;;;;;5012344;28;20853;-74
2021/05/20 00:04:21;;;;;;;1.30;1.20;;;;;;;;;;5015359;28;20184;-74
2021/05/20 00:06:47;;;;;;;4.15;1.92;;;;;;;;;;5013323;28;20207;-74
2021/05/20 00:09:13;;;;;;;2.13;1.27;;;;;;;;;;5012857;28;20198;-74
2021/05/20 00:11:39;;;;;;;2.40;2.00;;;;;;;;;;5027085;28;20493;-74
2021/05/20 00:14:06;;;;;;;2.33;1.60;;;;;;;;;;5033081;28;20421;-75
2021/05/20 00:16:31;;;;;;;1.40;1.27;;;;;;;;;;5036201;28;20424;-74
2021/05/20 00:18:57;;;;;;;1.10;0.97;;;;;;;;;;5044322;28;20227;-74
2021/05/20 00:21:23;;;;;;;1.17;0.97;;;;;;;;;;5050056;28;20438;-75
2021/05/20 00:23:49;;;;;;;1.40;1.00;;;;;;;;;;5032699;28;20423;-74
2021/05/20 00:26:15;;;;;;;1.00;0.70;;;;;;;;;;5025228;28;20241;-74
2021/05/20 00:28:42;;;;;;;1.83;1.70;;;;;;;;;;5011417;28;20531;-74
2021/05/20 00:31:08;;;;;;;2.67;1.00;;;;;;;;;;5012998;28;20579;-74
2021/05/20 00:33:34;;;;;;;1.98;1.88;;;;;;;;;;5013125;28;20256;-74
2021/05/20 00:36:00;;;;;;;1.50;1.40;;;;;;;;;;5012827;28;20199;-74
2021/05/20 00:38:26;;;;;;;1.50;1.40;;;;;;;;;;5029861;28;20456;-74
2021/05/20 00:40:58;;;;;;;1.10;0.90;;;;;;;;;;5032631;28;20438;-74
2021/05/20 00:43:24;;;;;;;1.15;0.95;;;;;;;;;;5036072;28;20431;-75
2021/05/20 00:45:50;;;;;;;1.40;1.27;;;;;;;;;;5044092;28;20553;-74
2021/05/20 00:48:16;;;;;;;1.50;1.30;;;;;;;;;;5052100;28;20213;-75
2021/05/20 00:50:42;;;;;;;1.30;1.20;;;;;;;;;;5024184;28;20844;-74
2021/05/20 00:53:08;;;;;;;1.80;1.30;;;;;;;;;;5012747;28;20420;-74
2021/05/20 00:55:35;;;;;;;2.10;1.93;;;;;;;;;;5015021;28;20442;-74
2021/05/20 00:58:01;;;;;;;2.88;1.95;;;;;;;;;;5012206;28;20427;-75
2021/05/20 01:00:27;;;;;;;2.28;1.27;;;;;;;;;;5012389;28;20200;-74
2021/05/20 01:02:53;;;;;;;1.63;1.52;;;;;;;;;;5034069;28;20221;-74
2021/05/20 01:05:19;;;;;;;2.70;1.98;;;;;;;;;;5031385;28;20589;-74
2021/05/20 01:07:45;;;;;;;2.70;1.87;;;;;;;;;;5032215;28;20209;-74
2021/05/20 01:10:11;;;;;;;2.50;1.37;;;;;;;;;;5033497;28;20499;-74
2021/05/20 01:12:38;;;;;;;1.98;1.30;;;;;;;;;;5042019;28;20498;-74
2021/05/20 01:15:04;;;;;;;2.00;1.45;;;;;;;;;;5052040;28;20672;-74
2021/05/20 01:17:30;;;;;;;2.03;1.92;;;;;;;;;;5051892;28;20213;-74
2021/05/20 01:19:57;;;;;;;2.60;2.43;;;;;;;;;;5047348;28;20722;-74
2021/05/20 01:22:23;;;;;;;2.75;2.40;;;;;;;;;;5031650;28;20782;-74
2021/05/20 01:24:49;;;;;;;2.17;1.98;;;;;;;;;;5020243;28;20214;-74
2021/05/20 01:27:15;;;;;;;1.67;1.55;;;;;;;;;;5012104;28;20175;-74
2021/05/20 01:29:42;;;;;;;2.80;2.10;;;;;;;;;;5011814;28;20182;-74
2021/05/20 01:32:09;;;;;;;2.08;1.10;;;;;;;;;;5016547;28;20221;-75
2021/05/20 01:34:35;;;;;;;1.40;1.10;;;;;;;;;;5043178;28;20261;-74
2021/05/20 01:37:01;;;;;;;1.92;1.75;;;;;;;;;;5036301;28;20182;-75
2021/05/20 01:39:27;;;;;;;1.77;1.65;;;;;;;;;;5030487;28;20212;-74
2021/05/20 01:41:53;;;;;;;1.92;1.83;;;;;;;;;;5040149;28;20178;-74
2021/05/20 01:44:20;;;;;;;2.67;2.00;;;;;;;;;;5051842;28;20600;-74
2021/05/20 01:46:46;;;;;;;2.63;1.38;;;;;;;;;;5035583;28;20195;-74
2021/05/20 01:49:12;;;;;;;2.00;1.73;;;;;;;;;;5050308;28;20197;-74
2021/05/20 01:51:38;;;;;;;1.75;1.65;;;;;;;;;;5039078;28;20209;-74
2021/05/20 01:54:05;;;;;;;1.90;1.80;;;;;;;;;;5011682;28;20653;-74
2021/05/20 01:56:35;;;;;;;5.68;4.00;;;;;;;;;;5011922;28;20173;-74
2021/05/20 01:59:01;;;;;;;3.78;2.25;;;;;;;;;;5011434;28;20281;-74
2021/05/20 02:01:27;;;;;;;1.70;1.60;;;;;;;;;;5011663;28;20258;-74
2021/05/20 02:03:53;;;;;;;1.40;1.30;;;;;;;;;;5011851;28;20406;-74
2021/05/20 02:06:19;;;;;;;1.58;1.40;;;;;;;;;;5012989;28;20539;-74
2021/05/20 02:08:45;;;;;;;1.30;1.20;;;;;;;;;;5037801;28;20284;-74
2021/05/20 02:11:11;;;;;;;1.65;1.50;;;;;;;;;;5050714;28;21031;-74
2021/05/20 02:13:37;;;;;;;2.10;1.93;;;;;;;;;;5051566;28;20180;-74
2021/05/20 02:16:03;;;;;;;1.13;1.00;;;;;;;;;;5050908;28;20414;-74
2021/05/20 02:18:29;;;;;;;2.22;2.03;;;;;;;;;;5051031;28;20251;-74
2021/05/20 02:20:55;;;;;;;3.55;1.63;;;;;;;;;;5051236;28;20711;-74
2021/05/20 02:23:21;;;;;;;2.72;1.20;;;;;;;;;;5036373;28;20714;-74
2021/05/20 02:25:47;;;;;;;2.30;1.93;;;;;;;;;;5030603;28;20181;-74
2021/05/20 02:28:13;;;;;;;2.40;1.87;;;;;;;;;;5041943;28;20823;-74
2021/05/20 02:30:40;;;;;;;1.98;1.80;;;;;;;;;;5051158;28;20461;-74
2021/05/20 02:33:06;;;;;;;2.20;1.48;;;;;;;;;;5022360;28;20713;-74
2021/05/20 02:35:32;;;;;;;3.20;1.70;;;;;;;;;;5032149;28;20236;-74
2021/05/20 02:37:58;;;;;;;1.83;1.73;;;;;;;;;;5038989;28;20456;-74
2021/05/20 02:40:24;;;;;;;3.65;3.10;;;;;;;;;;5034438;28;20609;-74
2021/05/20 02:42:50;;;;;;;2.20;1.60;;;;;;;;;;5034865;28;20210;-74
2021/05/20 02:45:19;;;;;;;1.53;1.43;;;;;;;;;;5037592;28;20264;-75
2021/05/20 02:47:45;;;;;;;2.60;2.45;;;;;;;;;;5045925;28;20435;-74
2021/05/20 02:50:11;;;;;;;2.53;2.33;;;;;;;;;;5054438;28;20183;-74
2021/05/20 02:52:37;;;;;;;1.83;1.65;;;;;;;;;;5053210;28;20280;-74
2021/05/20 02:55:04;;;;;;;1.60;1.50;;;;;;;;;;5033834;28;20182;-74
2021/05/20 02:57:34;;;;;;;2.10;1.90;;;;;;;;;;5034747;28;20194;-74
2021/05/20 03:00:00;;;;;;;1.52;1.42;;;;;;;;;;5034277;28;20231;-74
2021/05/20 03:02:27;;;;;;;1.30;1.20;;;;;;;;;;5027302;28;20182;-73
2021/05/20 03:04:53;;;;;;;2.83;2.63;;;;;;;;;;5022304;28;20182;-75
2021/05/20 03:07:19;;;;;;;3.53;2.83;;;;;;;;;;5045938;28;20188;-74
2021/05/20 03:09:45;;;;;;;5.13;3.97;;;;;;;;;;5028070;28;20519;-75
2021/05/20 03:12:11;;;;;;;4.33;3.20;;;;;;;;;;5013352;28;20298;-75
2021/05/20 03:14:37;;;;;;;2.38;1.63;;;;;;;;;;5016312;28;20428;-74
2021/05/20 03:17:09;;;;;;;1.52;1.42;;;;;;;;;;5043819;28;20533;-75
2021/05/20 03:19:35;;;;;;;2.33;2.22;;;;;;;;;;5053965;28;20177;-74
2021/05/20 03:22:01;;;;;;;4.50;2.80;;;;;;;;;;5054057;28;20231;-74
2021/05/20 03:24:27;;;;;;;2.00;1.80;;;;;;;;;;5043629;28;20426;-75
2021/05/20 03:26:53;;;;;;;4.40;2.27;;;;;;;;;;5014337;28;20413;-74
2021/05/20 03:29:19;;;;;;;2.63;2.15;;;;;;;;;;5016521;28;20480;-74
2021/05/20 03:31:45;;;;;;;1.83;1.43;;;;;;;;;;5041808;28;20382;-74
2021/05/20 03:34:11;;;;;;;3.83;2.83;;;;;;;;;;5017564;28;20445;-74
2021/05/20 03:36:37;;;;;;;2.50;2.30;;;;;;;;;;5031685;28;20420;-75
2021/05/20 03:39:04;;;;;;;2.30;2.10;;;;;;;;;;5069826;22;20499;-82
2021/05/20 03:41:30;;;;;;;2.35;1.80;;;;;;;;;;5079846;28;20487;-82
2021/05/20 03:43:56;;;;;;;4.93;3.00;;;;;;;;;;5052158;28;20573;-82
2021/05/20 03:46:22;;;;;;;2.50;2.03;;;;;;;;;;5048405;28;20189;-82
2021/05/20 03:48:48;;;;;;;2.92;2.72;;;;;;;;;;5067529;28;20474;-82
2021/05/20 03:51:14;;;;;;;1.40;1.27;;;;;;;;;;5065054;28;20272;-81
2021/05/20 03:53:40;;;;;;;3.13;2.50;;;;;;;;;;5074077;28;20237;-82
2021/05/20 03:56:06;;;;;;;1.80;1.70;;;;;;;;;;5066180;28;20187;-82
2021/05/20 03:58:32;;;;;;;4.70;1.67;;;;;;;;;;5066287;28;20492;-81
2021/05/20 04:00:58;;;;;;;4.00;1.80;;;;;;;;;;5063703;28;20416;-82
2021/05/20 04:03:24;;;;;;;4.22;3.88;;;;;;;;;;5063307;28;20235;-81
2021/05/20 04:05:51;;;;;;;2.33;2.13;;;;;;;;;;5063716;28;20182;-82
2021/05/20 04:08:17;;;;;;;14.05;2.13;;;;;;;;;;5064949;28;20431;-81
2021/05/20 04:10:43;;;;;;;4.40;3.10;;;;;;;;;;5064040;28;20189;-82
2021/05/20 04:13:09;;;;;;;8.93;3.40;;;;;;;;;;5064074;28;20439;-81
2021/05/20 04:15:34;;;;;;;2.10;1.43;;;;;;;;;;5064221;28;20415;-81
2021/05/20 04:18:00;;;;;;;5.20;3.30;;;;;;;;;;5064021;28;20498;-82
2021/05/20 04:20:26;;;;;;;3.42;3.15;;;;;;;;;;5062269;28;20422;-82
2021/05/20 04:22:52;;;;;;;3.72;3.33;;;;;;;;;;5064631;28;20249;-82
2021/05/20 04:25:19;;;;;;;5.10;3.40;;;;;;;;;;5063163;28;20180;-82
2021/05/20 04:27:45;;;;;;;2.78;1.95;;;;;;;;;;5061991;28;20453;-82
2021/05/20 04:30:11;;;;;;;4.60;3.80;;;;;;;;;;5065149;28;20171;-79
2021/05/20 04:32:37;;;;;;;4.50;2.45;;;;;;;;;;5059719;28;21056;-78
2021/05/20 04:35:03;;;;;;;2.60;2.40;;;;;;;;;;5058746;28;20188;-78
2021/05/20 04:37:29;;;;;;;3.65;2.92;;;;;;;;;;5061343;28;20439;-79
2021/05/20 04:39:55;;;;;;;7.80;4.47;;;;;;;;;;5065996;28;20213;-78
2021/05/20 04:42:21;;;;;;;7.10;3.33;;;;;;;;;;5063222;28;20439;-79
2021/05/20 04:44:47;;;;;;;12.52;6.13;;;;;;;;;;5075461;28;20427;-79
2021/05/20 04:47:13;;;;;;;2.88;2.45;;;;;;;;;;5083970;28;20186;-78
2021/05/20 04:49:39;;;;;;;4.63;4.23;;;;;;;;;;5067095;28;20190;-79
2021/05/20 04:52:05;;;;;;;6.63;3.15;;;;;;;;;;5066388;28;20463;-79
2021/05/20 04:54:31;;;;;;;3.53;3.22;;;;;;;;;;5065712;28;20194;-79
2021/05/20 04:56:56;;;;;;;4.23;3.03;;;;;;;;;;5065167;28;20565;-78
2021/05/20 04:59:23;;;;;;;3.37;3.17;;;;;;;;;;5065250;28;20435;-79
2021/05/20 05:01:48;;;;;;;4.60;3.05;;;;;;;;;;5050174;28;20421;-79
2021/05/20 05:04:14;;;;;;;4.30;3.93;;;;;;;;;;5062298;28;20257;-79
2021/05/20 05:06:40;;;;;;;3.77;3.17;;;;;;;;;;5066046;28;20430;-79
2021/05/20 05:09:06;;;;;;;3.87;3.43;;;;;;;;;;5064721;28;20527;-78
2021/05/20 05:11:32;;;;;;;8.00;5.70;;;;;;;;;;5065932;28;20455;-78
2021/05/20 05:13:58;;;;;;;3.73;2.60;;;;;;;;;;5067069;28;20437;-78
2021/05/20 05:16:24;;;;;;;3.67;2.93;;;;;;;;;;5066174;28;20412;-78
2021/05/20 05:18:50;;;;;;;7.20;3.50;;;;;;;;;;5063553;28;20436;-78
2021/05/20 05:21:17;;;;;;;5.20;3.77;;;;;;;;;;5065741;28;20430;-79
2021/05/20 05:23:43;;;;;;;5.07;3.35;;;;;;;;;;5065128;28;20420;-78
2021/05/20 05:26:09;;;;;;;4.83;4.13;;;;;;;;;;5066134;28;20208;-79
2021/05/20 05:28:35;;;;;;;5.70;2.60;;;;;;;;;;5065920;28;20452;-78
2021/05/20 05:31:01;;;;;;;6.53;3.20;;;;;;;;;;5064587;28;20463;-78
2021/05/20 05:33:27;;;;;;;3.08;2.83;;;;;;;;;;5059050;28;20238;-79
2021/05/20 05:35:53;;;;;;;4.43;2.63;;;;;;;;;;5051839;28;20615;-79
2021/05/20 05:38:19;;;;;;;3.30;2.33;;;;;;;;;;5058519;28;20470;-79
2021/05/20 05:40:45;;;;;;;3.03;2.13;;;;;;;;;;5066811;28;20404;-78
2021/05/20 05:43:11;;;;;;;7.20;3.15;;;;;;;;;;5067113;28;20240;-79
2021/05/20 05:45:37;;;;;;;4.50;3.90;;;;;;;;;;5060015;28;20224;-79
2021/05/20 05:48:04;;;;;;;2.97;2.60;;;;;;;;;;5065950;28;20515;-79
2021/05/20 05:50:30;;;;;;;4.45;3.85;;;;;;;;;;5062434;28;20170;-79
2021/05/20 05:52:56;;;;;;;5.07;3.30;;;;;;;;;;5046268;28;20209;-78
2021/05/20 05:55:22;;;;;;;5.22;3.30;;;;;;;;;;5039531;28;20420;-79
2021/05/20 05:57:48;;;;;;;7.00;4.40;;;;;;;;;;5039412;28;20185;-79
2021/05/20 06:00:15;;;;;;;6.23;3.33;;;;;;;;;;5037493;28;20185;-80
2021/05/20 06:02:43;;;;;;;5.15;3.95;;;;;;;;;;5037676;28;20431;-80
2021/05/20 06:05:09;;;;;;;6.63;3.95;;;;;;;;;;5051547;28;20190;-81
2021/05/20 06:07:35;;;;;;;3.38;3.08;;;;;;;;;;5059816;28;20185;-81
2021/05/20 06:10:05;;;;;;;6.07;3.70;;;;;;;;;;5060736;28;20240;-80
2021/05/20 06:12:31;;;;;;;4.53;3.05;;;;;;;;;;5061373;28;20951;-78
2021/05/20 06:14:57;;;;;;;6.60;3.15;;;;;;;;;;5049750;28;20264;-78
2021/05/20 06:17:23;;;;;;;5.63;3.33;;;;;;;;;;5057885;28;20216;-77
2021/05/20 06:19:49;;;;;;;7.80;4.20;;;;;;;;;;5048049;28;20508;-78
2021/05/20 06:22:15;;;;;;;5.50;3.60;;;;;;;;;;5060588;28;20427;-78
2021/05/20 06:24:42;;;;;;;6.30;3.87;;;;;;;;;;5067573;28;20415;-78
2021/05/20 06:27:08;;;;;;;6.38;4.28;;;;;;;;;;5060606;28;20541;-78
2021/05/20 06:29:34;;;;;;;6.85;2.92;;;;;;;;;;5060446;28;20197;-78
2021/05/20 06:32:00;;;;;;;2.60;2.40;;;;;;;;;;5060944;28;20247;-78
2021/05/20 06:34:26;;;;;;;5.00;4.45;;;;;;;;;;5058788;28;20527;-78
2021/05/20 06:36:56;;;;;;;4.37;4.00;;;;;;;;;;5055885;28;20217;-78
2021/05/20 06:39:22;;;;;;;6.43;4.03;;;;;;;;;;5056177;28;20466;-78
2021/05/20 06:41:48;;;;;;;7.87;4.17;;;;;;;;;;5059533;28;20177;-78
2021/05/20 06:44:14;;;;;;;5.97;5.40;;;;;;;;;;5058325;28;20907;-78
2021/05/20 06:46:40;;;;;;;3.40;3.10;;;;;;;;;;5051754;28;20412;-77
2021/05/20 06:49:08;;;;;;;7.90;2.60;;;;;;;;;;5058523;28;20965;-77
2021/05/20 06:51:34;;;;;;;4.82;4.43;;;;;;;;;;5060576;28;20486;-77
2021/05/20 06:54:00;;;;;;;4.50;3.20;;;;;;;;;;5042779;28;20256;-78
2021/05/20 06:56:29;;;;;;;3.10;2.80;;;;;;;;;;5040996;28;20194;-77
2021/05/20 07:01:45;;;;;;;5.50;3.72;;;;;;;;;;5040826;28;20257;-78
2021/05/20 07:04:11;;;;;;;4.70;2.58;;;;;;;;;;5036385;28;20173;-76
2021/05/20 07:06:37;;;;;;;4.03;3.07;;;;;;;;;;5056072;28;20181;-78
2021/05/20 07:09:04;;;;;;;6.10;2.63;;;;;;;;;;5043216;28;20440;-76
2021/05/20 07:11:30;;;;;;;2.67;2.47;;;;;;;;;;5045697;28;20483;-79
2021/05/20 07:13:56;;;;;;;3.47;3.13;;;;;;;;;;5054544;28;20181;-77
2021/05/20 07:16:22;;;;;;;3.63;3.20;;;;;;;;;;5045189;28;20252;-76
2021/05/20 07:18:49;;;;;;;5.63;3.05;;;;;;;;;;5053367;28;20193;-77
2021/05/20 07:21:15;;;;;;;3.97;3.65;;;;;;;;;;5052479;28;20272;-77
2021/05/20 07:23:41;;;;;;;4.57;3.63;;;;;;;;;;5053826;28;20590;-77
2021/05/20 07:26:07;;;;;;;4.88;3.85;;;;;;;;;;5054094;28;20226;-77
2021/05/20 07:28:33;;;;;;;8.80;4.00;;;;;;;;;;5053887;28;20228;-77
2021/05/20 07:30:59;;;;;;;2.08;1.88;;;;;;;;;;5053687;28;20503;-77
2021/05/20 07:33:26;;;;;;;2.92;2.55;;;;;;;;;;5053730;28;20232;-77
2021/05/20 07:35:52;;;;;;;5.15;4.30;;;;;;;;;;5056308;28;20172;-77
2021/05/20 07:38:18;;;;;;;5.13;3.92;;;;;;;;;;5051290;28;20212;-77
2021/05/20 07:40:44;;;;;;;5.20;3.73;;;;;;;;;;5033255;28;20186;-77
2021/05/20 07:43:10;;;;;;;4.85;3.47;;;;;;;;;;5048909;28;20940;-77
2021/05/20 07:45:36;;;;;;;3.00;1.20;;;;;;;;;;5051709;28;20181;-77
2021/05/20 07:48:02;;;;;;;4.67;4.27;;;;;;;;;;5049329;28;20420;-77
2021/05/20 07:50:28;;;;;;;3.15;2.65;;;;;;;;;;5056613;28;20443;-77
2021/05/20 07:52:54;;;;;;;2.45;1.52;;;;;;;;;;5057018;28;20633;-77
2021/05/20 07:55:20;;;;;;;5.93;2.50;;;;;;;;;;5055550;28;20204;-77
2021/05/20 07:57:47;;;;;;;3.95;2.20;;;;;;;;;;5057205;28;20390;-77
2021/05/20 08:00:13;;;;;;;2.65;1.42;;;;;;;;;;5053624;28;20548;-77
2021/05/20 08:02:50;;;;;;;3.00;2.80;;;;;;;;;;5042528;28;20203;-77
2021/05/20 08:05:25;;;;;;;2.92;2.08;;;;;;;;;;5045162;28;20170;-77
2021/05/20 08:12:46;;;;;;;1.63;1.30;;;;;;;;;;5055113;28;20719;-77
2021/05/20 08:15:12;;;;;;;2.90;1.57;;;;;;;;;;5054850;28;20182;-77
2021/05/20 08:17:38;;;;;;;7.43;3.55;;;;;;;;;;5048385;28;20507;-77
2021/05/20 08:20:05;;;;;;;4.03;2.72;;;;;;;;;;5053328;28;20208;-77
2021/05/20 08:22:31;;;;;;;2.95;2.75;;;;;;;;;;5055455;28;20183;-77
2021/05/20 08:24:57;;;;;;;1.48;1.00;;;;;;;;;;5053560;28;20185;-77
2021/05/20 08:27:23;;;;;;;2.65;2.45;;;;;;;;;;5035165;28;20316;-77
2021/05/20 08:29:50;;;;;;;2.30;1.53;;;;;;;;;;5034836;28;20224;-77
2021/05/20 08:32:16;;;;;;;2.65;1.55;;;;;;;;;;5039068;28;20486;-76
2021/05/20 08:34:42;;;;;;;2.88;2.67;;;;;;;;;;5054509;28;20166;-77
2021/05/20 08:37:08;;;;;;;1.65;1.50;;;;;;;;;;5054106;28;20553;-77
2021/05/20 08:39:34;;;;;;;1.53;1.03;;;;;;;;;;5053807;28;20214;-77
2021/05/20 08:42:00;;;;;;;1.73;1.50;;;;;;;;;;5053622;28;20558;-77
2021/05/20 08:44:27;;;;;;;1.77;1.60;;;;;;;;;;5053142;28;20411;-77
2021/05/20 08:46:57;;;;;;;3.80;1.50;;;;;;;;;;5053380;28;20217;-77
2021/05/20 08:49:23;;;;;;;8.65;2.97;;;;;;;;;;5046204;28;20194;-77
2021/05/20 08:51:50;;;;;;;3.17;2.85;;;;;;;;;;5053154;28;20233;-77
2021/05/20 08:54:16;;;;;;;2.55;1.92;;;;;;;;;;5052874;28;20259;-77
2021/05/20 08:56:46;;;;;;;1.83;1.58;;;;;;;;;;5046208;28;20272;-77
2021/05/20 08:59:12;;;;;;;2.90;1.77;;;;;;;;;;5031925;28;20267;-77
2021/05/20 09:01:39;;;;;;;2.55;1.60;;;;;;;;;;5032246;28;20543;-78
2021/05/20 09:04:06;;;;;;;2.10;1.80;;;;;;;;;;5042685;28;20193;-77
2021/05/20 09:06:44;;;;;;;3.40;3.10;;;;;;;;;;5051899;28;20227;-77
2021/05/20 09:09:26;;;;;;;2.20;2.10;;;;;;;;;;5049996;28;20453;-77
2021/05/20 09:11:52;;;;;;;3.63;2.47;;;;;;;;;;5043229;28;20198;-77
2021/05/20 09:14:34;;;;;;;1.30;1.20;;;;;;;;;;5051597;28;20390;-77
2021/05/20 09:17:07;;;;;;;3.43;1.63;;;;;;;;;;5051554;28;20410;-77
2021/05/20 09:19:33;;;;;;;3.07;2.87;;;;;;;;;;5050134;28;20534;-77
2021/05/20 09:22:06;;;;;;;1.80;1.70;;;;;;;;;;5048964;28;20437;-77
2021/05/20 09:24:46;;;;;;;1.30;1.20;;;;;;;;;;5050941;28;20484;-77
2021/05/20 09:27:27;;;;;;;4.93;2.00;;;;;;;;;;5048817;28;20420;-76
2021/05/20 09:30:12;;;;;;;5.73;2.53;;;;;;;;;;5051883;28;20430;-77
2021/05/20 09:32:39;;;;;;;1.93;1.70;;;;;;;;;;5046449;28;20446;-77
2021/05/20 09:35:05;;;;;;;2.73;2.43;;;;;;;;;;5033601;28;20477;-77
2021/05/20 09:37:34;;;;;;;2.60;1.40;;;;;;;;;;5034474;28;20404;-77
2021/05/20 09:40:01;;;;;;;1.00;0.90;;;;;;;;;;5032988;28;562043;-78
2021/05/20 09:42:30;;;;;;;1.40;1.30;;;;;;;;;;5052124;28;20438;-78
2021/05/20 09:45:05;;;;;;;3.50;2.13;;;;;;;;;;5054567;28;20434;-78
2021/05/20 09:47:31;;;;;;;2.13;2.03;;;;;;;;;;5041814;28;20473;-78
2021/05/20 09:49:59;;;;;;;1.13;1.03;;;;;;;;;;5033593;28;20448;-78
2021/05/20 09:52:25;;;;;;;1.90;1.80;;;;;;;;;;5049535;28;20445;-78
2021/05/20 09:54:51;;;;;;;1.57;1.10;;;;;;;;;;5053063;28;20402;-78
2021/05/20 09:57:31;;;;;;;1.83;1.50;;;;;;;;;;5045825;28;20431;-78
2021/05/20 10:00:07;;;;;;;1.20;1.10;;;;;;;;;;5035696;28;20448;-78
2021/05/20 10:02:33;;;;;;;2.60;1.43;;;;;;;;;;5033516;28;20411;-77
2021/05/20 10:05:19;;;;;;;0.90;0.70;;;;;;;;;;5041536;28;20398;-78
2021/05/20 10:07:45;;;;;;;1.20;1.10;;;;;;;;;;5044584;28;20518;-78
2021/05/20 10:10:11;;;;;;;1.80;1.53;;;;;;;;;;5053562;28;20512;-78
2021/05/20 10:12:39;;;;;;;1.93;1.50;;;;;;;;;;5053845;28;20470;-78
2021/05/20 10:15:06;;;;;;;2.10;1.47;;;;;;;;;;5039603;28;20740;-78
2021/05/20 10:17:33;;;;;;;1.27;1.17;;;;;;;;;;5034293;28;20416;-78
2021/05/20 10:20:00;;;;;;;1.40;1.30;;;;;;;;;;5040899;28;20831;-77
2021/05/20 10:22:27;;;;;;;1.60;1.50;;;;;;;;;;5044753;28;20510;-77
2021/05/20 10:24:53;;;;;;;0.93;0.77;;;;;;;;;;5052840;28;20474;-78
2021/05/20 10:27:19;;;;;;;1.20;1.10;;;;;;;;;;5053642;28;20420;-77
2021/05/20 10:29:45;;;;;;;1.60;1.00;;;;;;;;;;5043912;28;20475;-77
2021/05/20 10:32:11;;;;;;;1.30;1.10;;;;;;;;;;5032111;28;20477;-78
2021/05/20 10:34:56;;;;;;;1.33;1.23;;;;;;;;;;5033437;28;20895;-78
2021/05/20 10:37:26;;;;;;;1.00;0.90;;;;;;;;;;5033430;28;20408;-78
2021/05/20 10:39:52;;;;;;;1.13;1.03;;;;;;;;;;5035090;28;21176;-78
2021/05/20 10:42:37;;;;;;;0.97;0.90;;;;;;;;;;5054143;28;20424;-77
2021/05/20 10:45:20;;;;;;;1.13;1.03;;;;;;;;;;5048904;28;20388;-78
2021/05/20 10:48:04;;;;;;;1.10;1.00;;;;;;;;;;5050067;28;20788;-78
2021/05/20 10:50:45;;;;;;;1.13;0.60;;;;;;;;;;5032138;28;20857;-78
2021/05/20 10:53:11;;;;;;;1.63;1.13;;;;;;;;;;5034587;28;20459;-78
2021/05/20 10:55:38;;;;;;;1.37;1.23;;;;;;;;;;5038364;28;20482;-78
2021/05/20 10:58:05;;;;;;;0.90;0.77;;;;;;;;;;5056114;28;20448;-77
2021/05/20 11:00:31;;;;;;;2.27;1.53;;;;;;;;;;5043925;28;20421;-77
2021/05/20 11:02:59;;;;;;;1.20;1.10;;;;;;;;;;5036921;28;20780;-78
2021/05/20 11:05:40;;;;;;;0.70;0.70;;;;;;;;;;5051772;28;20451;-77
2021/05/20 11:08:10;;;;;;;1.10;1.00;;;;;;;;;;5056068;28;20428;-77
2021/05/20 11:10:36;;;;;;;0.80;0.70;;;;;;;;;;5056195;28;20420;-77
2021/05/20 11:13:02;;;;;;;0.70;0.67;;;;;;;;;;5055087;28;20470;-77
2021/05/20 11:15:28;;;;;;;1.97;1.80;;;;;;;;;;5055561;28;20918;-77
2021/05/20 11:17:54;;;;;;;1.50;1.00;;;;;;;;;;5054864;28;20429;-78
2021/05/20 11:20:32;;;;;;;1.10;1.00;;;;;;;;;;5056299;28;20415;-78
2021/05/20 11:23:18;;;;;;;0.97;0.97;;;;;;;;;;5056516;28;20822;-78
2021/05/20 11:25:44;;;;;;;1.17;1.07;;;;;;;;;;5056373;28;20415;-78
2021/05/20 11:28:10;;;;;;;1.20;1.10;;;;;;;;;;5052611;28;21014;-77
2021/05/20 11:30:37;;;;;;;1.17;1.03;;;;;;;;;;5046044;28;20497;-77
2021/05/20 11:33:03;;;;;;;1.00;0.90;;;;;;;;;;5052069;28;20469;-77
2021/05/20 11:35:54;;;;;;;0.60;0.60;;;;;;;;;;5055179;28;20457;-77
2021/05/20 11:38:27;;;;;;;1.17;1.07;;;;;;;;;;5055444;28;20499;-77
2021/05/20 11:40:54;;;;;;;0.90;0.90;;;;;;;;;;5055781;28;20416;-77
2021/05/20 11:43:27;;;;;;;0.83;0.83;;;;;;;;;;5055804;28;20409;-77
2021/05/20 11:45:52;;;;;;;0.70;0.70;;;;;;;;;;5053428;28;20436;-77
2021/05/20 11:48:18;;;;;;;1.43;0.80;;;;;;;;;;5046398;28;20484;-77
2021/05/20 11:50:51;;;;;;;0.90;0.70;;;;;;;;;;5053654;28;20424;-77
2021/05/20 11:53:17;;;;;;;3.03;1.13;;;;;;;;;;5053692;28;20464;-76
2021/05/20 11:55:45;;;;;;;0.90;0.70;;;;;;;;;;5053227;28;20527;-76
2021/05/20 11:58:11;;;;;;;0.70;0.70;;;;;;;;;;5053177;28;20928;-76
2021/05/20 12:00:37;;;;;;;0.67;0.60;;;;;;;;;;5053216;28;20463;-76
2021/05/20 12:03:04;;;;;;;1.20;0.93;;;;;;;;;;5053320;28;20962;-76
2021/05/20 12:05:30;;;;;;;0.70;0.60;;;;;;;;;;5053095;28;20412;-76
2021/05/20 12:07:57;;;;;;;0.70;0.70;;;;;;;;;;5036090;28;20848;-76
2021/05/20 12:10:24;;;;;;;1.20;1.10;;;;;;;;;;5033276;28;20413;-76
2021/05/20 12:12:55;;;;;;;1.63;0.90;;;;;;;;;;5033131;28;20466;-76
2021/05/20 12:15:22;;;;;;;0.70;0.70;;;;;;;;;;5034118;28;20524;-76
2021/05/20 12:17:48;;;;;;;0.80;0.80;;;;;;;;;;5044916;28;20420;-76
2021/05/20 12:20:15;;;;;;;0.87;0.87;;;;;;;;;;5052792;28;20417;-76
2021/05/20 12:22:42;;;;;;;1.03;0.70;;;;;;;;;;5052430;28;20446;-76
2021/05/20 12:25:12;;;;;;;0.70;0.50;;;;;;;;;;5051663;28;20435;-76
2021/05/20 12:27:37;;;;;;;0.70;0.60;;;;;;;;;;5049664;28;21005;-76
2021/05/20 12:30:24;;;;;;;1.30;0.60;;;;;;;;;;5050845;28;20578;-76
2021/05/20 12:32:54;;;;;;;0.80;0.50;;;;;;;;;;5057972;28;20509;-76
2021/05/20 12:35:27;;;;;;;0.60;0.60;;;;;;;;;;5057244;28;20433;-76
2021/05/20 12:38:12;;;;;;;1.90;1.00;;;;;;;;;;5052443;28;20438;-76
2021/05/20 12:40:41;;;;;;;0.70;0.70;;;;;;;;;;5051564;28;20967;-76
2021/05/20 12:43:10;;;;;;;0.60;0.53;;;;;;;;;;5045828;28;20500;-76
2021/05/20 12:45:57;;;;;;;0.70;0.60;;;;;;;;;;5048551;28;20519;-76
2021/05/20 12:48:33;;;;;;;0.70;0.60;;;;;;;;;;5045590;28;20519;-76
2021/05/20 12:51:00;;;;;;;0.80;0.60;;;;;;;;;;5050233;28;20411;-76
2021/05/20 12:53:26;;;;;;;0.70;0.70;;;;;;;;;;5051537;28;20469;-76
2021/05/20 12:55:53;;;;;;;0.70;0.60;;;;;;;;;;5051318;28;20443;-76
2021/05/20 12:58:19;;;;;;;0.70;0.70;;;;;;;;;;5052204;28;20473;-76
2021/05/20 13:00:54;;;;;;;0.60;0.60;;;;;;;;;;5051654;28;20490;-76
2021/05/20 13:03:20;;;;;;;0.70;0.70;;;;;;;;;;5039350;28;20800;-76
2021/05/20 13:05:47;;;;;;;0.70;0.60;;;;;;;;;;5051375;28;20440;-76
2021/05/20 13:08:33;;;;;;;1.20;1.10;;;;;;;;;;5048014;28;20448;-76
2021/05/20 13:10:59;;;;;;;0.60;0.60;;;;;;;;;;5043745;28;20443;-76
2021/05/20 13:13:28;;;;;;;0.70;0.70;;;;;;;;;;5051537;28;20438;-76
2021/05/20 13:16:05;;;;;;;0.80;0.80;;;;;;;;;;5049911;28;20427;-76
2021/05/20 13:23:42;;;;;;;1.47;0.70;;;;;;;;;;5040656;28;20447;-76
2021/05/20 13:26:08;;;;;;;0.70;0.60;;;;;;;;;;5043143;28;20918;-76
2021/05/20 13:28:34;;;;;;;0.70;0.60;;;;;;;;;;5041578;28;20463;-76
2021/05/20 13:31:02;;;;;;;0.83;0.83;;;;;;;;;;5041224;28;20466;-77
2021/05/20 13:33:38;;;;;;;0.60;0.60;;;;;;;;;;5042552;28;20432;-76
2021/05/20 13:36:06;;;;;;;0.70;0.70;;;;;;;;;;5043942;28;20510;-76
2021/05/20 13:38:32;;;;;;;0.60;0.50;;;;;;;;;;5047701;28;20543;-76
2021/05/20 13:40:58;;;;;;;0.60;0.50;;;;;;;;;;5049497;28;20524;-77
2021/05/20 13:43:25;;;;;;;0.60;0.50;;;;;;;;;;5051135;28;20443;-76
2021/05/20 13:45:51;;;;;;;0.60;0.50;;;;;;;;;;5039011;28;20457;-76
2021/05/20 13:48:17;;;;;;;0.70;0.60;;;;;;;;;;5051403;28;20434;-76
2021/05/20 13:50:44;;;;;;;0.70;0.50;;;;;;;;;;5044788;28;20440;-76
2021/05/20 13:53:10;;;;;;;0.60;0.60;;;;;;;;;;5036086;28;20536;-76
2021/05/20 13:55:36;;;;;;;0.60;0.50;;;;;;;;;;5038004;28;20414;-76
2021/05/20 13:58:02;;;;;;;0.97;0.70;;;;;;;;;;5050656;28;20849;-76
2021/05/20 14:00:31;;;;;;;0.60;0.50;;;;;;;;;;5045542;28;20423;-76
2021/05/20 14:03:03;;;;;;;0.60;0.50;;;;;;;;;;5043630;28;20979;-76
2021/05/20 14:05:29;;;;;;;0.60;0.50;;;;;;;;;;5046596;28;20442;-76
2021/05/20 14:07:56;;;;;;;0.70;0.70;;;;;;;;;;5049812;28;20772;-76
2021/05/20 14:10:22;;;;;;;0.60;0.50;;;;;;;;;;5047414;28;20467;-77
2021/05/20 14:12:48;;;;;;;0.60;0.60;;;;;;;;;;5051223;28;20518;-78
2021/05/20 14:15:15;;;;;;;0.60;0.60;;;;;;;;;;5049587;28;20432;-76
2021/05/20 14:17:46;;;;;;;0.80;0.80;;;;;;;;;;5036127;28;20485;-77
2021/05/20 14:20:19;;;;;;;0.70;0.60;;;;;;;;;;5049488;28;20419;-77
2021/05/20 14:22:45;;;;;;;0.80;0.80;;;;;;;;;;5037662;28;20537;-77
2021/05/20 14:25:11;;;;;;;0.60;0.50;;;;;;;;;;5051021;28;20566;-78
2021/05/20 14:27:37;;;;;;;0.60;0.60;;;;;;;;;;5038970;28;20437;-77
2021/05/20 14:30:04;;;;;;;0.60;0.60;;;;;;;;;;5052815;28;20838;-77
2021/05/20 14:32:30;;;;;;;2.50;0.80;;;;;;;;;;5044543;28;20906;-77
2021/05/20 14:34:56;;;;;;;1.67;0.67;;;;;;;;;;5045029;28;20553;-76
2021/05/20 14:37:22;;;;;;;0.60;0.60;;;;;;;;;;5056281;28;20406;-77
2021/05/20 14:39:49;;;;;;;0.70;0.60;;;;;;;;;;5054175;28;20472;-78
2021/05/20 14:42:15;;;;;;;0.70;0.60;;;;;;;;;;5055956;28;20445;-77
2021/05/20 14:44:44;;;;;;;0.60;0.50;;;;;;;;;;5055027;28;20472;-77
2021/05/20 14:47:11;;;;;;;0.60;0.60;;;;;;;;;;5053491;28;20435;-77
2021/05/20 14:49:52;;;;;;;0.90;0.90;;;;;;;;;;5036556;28;20486;-76
2021/05/20 15:05:55;;;;;;;0.60;0.50;;;;;;;;;;5045250;28;20435;-76
2021/05/20 15:08:22;;;;;;;0.60;0.60;;;;;;;;;;5047955;28;20418;-77
2021/05/20 15:13:37;;;;;;;0.60;0.60;;;;;;;;;;5040665;28;20488;-77
2021/05/20 15:16:04;;;;;;;1.73;0.60;;;;;;;;;;5054238;28;20435;-76